Nearby METAR Reports


KEDC - Austin Exec, Texas, USA
Distance from station: SW 16mi, 25km
Updated: Sun, 19-Aug-2018 2:35am CDT
Clear
Clear
 Wind from SSW
Wind: SSW 7 mph , 11 km/h
Temperature: 77°F , 25°C
Dew Point: 73°F , 23°C
Humidity: 89%
Barometer: 29.92 inHg , 1013.2 hPa
Clouds: Clear
Visibility: 10 miles , 16 km
2018/08/19 07:35 KEDC 190735Z AUTO 20006KT 10SM CLR 25/23 A2992 RMK AO2
KGTU - Georgetown, Texas, USA
Distance from station: WNW 17mi, 28km
Updated: Sun, 19-Aug-2018 1:56am CDT
Clear
Clear
 Wind from S
Wind: S 13 mph , 20 km/h
Temperature: 82°F , 28°C
Heat Index: 84°F , 29°C
Dew Point: 66°F , 19°C
Humidity: 58%
Barometer: 29.92 inHg , 1013.2 hPa
Clouds: Clear
Visibility: 10 miles , 16 km
2018/08/19 06:56 KGTU 190656Z AUTO 18011KT 10SM CLR 28/19 A2992 RMK AO2 SLP124 T02830194
 
KATT - Austin/Mabry, Texas, USA
Distance from station: SW 28mi, 45km
Updated: Fri, 17-Aug-2018 7:51pm CDT
NOT Current
Clear
Clear
 Wind from SSE
Wind: SSE 5 mph , 7 km/h
Temperature: 97°F , 36°C
Dew Point: 57°F , 14°C
Humidity: 27%
Barometer: 29.97 inHg , 1014.9 hPa
Clouds: Clear
Visibility: 10 miles , 16 km
2018/08/18 00:51 KATT 180051Z AUTO 15004KT 10SM CLR 36/14 A2997 RMK AO2 SLP132 T03560144
KAUS - Austin, Texas, USA
Distance from station: SSW 32mi, 51km
Updated: Sun, 19-Aug-2018 1:53am CDT
Few Clouds
Few Clouds
 Wind from S
Wind: S 10 mph , 17 km/h
Temperature: 81°F , 27°C
Heat Index: 85°F , 29°C
Dew Point: 72°F , 22°C
Humidity: 74%
Barometer: 29.91 inHg , 1012.9 hPa
Clouds: Few Clouds
Visibility: 10 miles , 16 km
Cloud details: Few Clouds 25000 ft
2018/08/19 06:53 KAUS 190653Z 19009KT 10SM FEW250 27/22 A2991 RMK AO2 SLP115 T02720222 $
 
KRYW - Lago Vista, Texas, USA
Distance from station: W 33mi, 54km
Updated: Sun, 19-Aug-2018 2:35am CDT
Clear
Clear
 Wind from S
Wind: S 9 mph , 15 km/h
Temperature: 79°F , 26°C
Dew Point: 70°F , 21°C
Humidity: 74%
Barometer: 29.95 inHg , 1014.2 hPa
Clouds: Clear
Visibility: 10 miles , 16 km
2018/08/19 07:35 KRYW 190735Z AUTO 19008KT 10SM CLR 26/21 A2995 RMK AO2 T02630206
KILE - Killeen Muni, Texas, USA
Distance from station: NNW 37mi, 59km
Updated: Sun, 19-Aug-2018 1:56am CDT
Clear
Clear
 Wind from S
Wind: S 10 mph , 17 km/h
Temperature: 82°F , 28°C
Heat Index: 84°F , 29°C
Dew Point: 66°F , 19°C
Humidity: 58%
Barometer: 29.91 inHg , 1012.9 hPa
Clouds: Clear
Visibility: 10 miles , 16 km
2018/08/19 06:56 KILE 190656Z AUTO 18009KT 10SM CLR 28/19 A2991 RMK AO2 SLP123 T02830189
 
KTPL - Temple/Miller, Texas, USA
Distance from station: N 38mi, 61km
Updated: Sun, 19-Aug-2018 1:51am CDT
Clear
Clear
 Wind from S
Wind: S 15 mph , 24 km/h
Temperature: 82°F , 28°C
Heat Index: 86°F , 30°C
Dew Point: 70°F , 21°C
Humidity: 66%
Barometer: 29.90 inHg , 1012.5 hPa
Clouds: Clear
2018/08/19 06:51 KTPL 190651Z AUTO 17013KT CLR 28/21 A2990 RMK AO2 SLP122 T02780206 PWINO RVRNO $
KGYB - Giddings-Lee, Texas, USA
Distance from station: SE 39mi, 62km
Updated: Sun, 19-Aug-2018 2:35am CDT
Clear
Clear
 Wind from SSW
Wind: SSW 6 mph , 9 km/h
Temperature: 79°F , 26°C
Dew Point: 73°F , 23°C
Humidity: 84%
Barometer: 29.92 inHg , 1013.2 hPa
Clouds: Clear
Visibility: 10 miles , 16 km
2018/08/19 07:35 KGYB 190735Z AUTO 20005KT 10SM CLR 26/23 A2992 RMK AO2 T02570232
 
KGRK - Gray/Ft Hood, Texas, USA
Distance from station: NW 42mi, 67km
Updated: Sun, 19-Aug-2018 1:58am CDT
Clear
Clear
 Wind from SSE
Wind: SSE 9 mph , 15 km/h
Temperature: 81°F , 27°C
Heat Index: 83°F , 28°C
Dew Point: 64°F , 18°C
Humidity: 58%
Barometer: 29.90 inHg , 1012.5 hPa
Clouds: Clear
Visibility: 10 miles , 16 km
2018/08/19 06:58 KGRK 190658Z AUTO 16008KT 10SM CLR 27/18 A2990 RMK AO2 SLP111 T02740184
KHLR - Ft Hood/Killeen, Texas, USA
Distance from station: NNW 42mi, 67km
Updated: Sun, 19-Aug-2018 1:58am CDT
Clear
Clear
 Wind from S
Wind: S 14 mph , 22 km/h
Temperature: 84°F , 29°C
Heat Index: 85°F , 29°C
Dew Point: 64°F , 18°C
Humidity: 51%
Barometer: 29.86 inHg , 1011.2 hPa
Clouds: Clear
Visibility: 10 miles , 16 km
2018/08/19 06:58 KHLR 190658Z AUTO 19012KT 10SM CLR 29/18 A2986 RMK AO2 SLP097 T02850183
 
KRWV - Caldwell, Texas, USA
Distance from station: E 43mi, 69km
Updated: Sun, 19-Aug-2018 2:35am CDT
Clear
Clear
 Wind from SSW
Wind: SSW 9 mph , 15 km/h
Temperature: 79°F , 26°C
Dew Point: 73°F , 23°C
Humidity: 84%
Barometer: 29.91 inHg , 1012.9 hPa
Clouds: Clear
Visibility: 10 miles , 16 km
2018/08/19 07:35 KRWV 190735Z AUTO 20008KT 10SM CLR 26/23 A2991 RMK AO2 T02640232
KBMQ - Burnet, Texas, USA
Distance from station: WNW 50mi, 80km
Updated: Sun, 19-Aug-2018 1:53am CDT
Clear
Clear
 Wind from S
Wind: S 8 mph , 13 km/h
Temperature: 82°F , 28°C
Heat Index: 84°F , 29°C
Dew Point: 66°F , 19°C
Humidity: 58%
Barometer: 29.95 inHg , 1014.2 hPa
Clouds: Clear
Visibility: 10 miles , 16 km
2018/08/19 06:53 KBMQ 190653Z AUTO 17007KT 10SM CLR 28/19 A2995 RMK AO2 SLP119 T02780189